Terminal Aerodrome Forecast
Issued by NWS Mt. Holly, NJ

Home | Current Version | Previous Version | Text Only | Print | Product List | Glossary On
Versions: 1 2 3 4 5 6 7 8 9 10 11 12 13 14 15 16
558
FTUS41 KPHI 241731
TAFILG
TAF
KILG 241731Z 2418/2518 18010KT P6SM SCT040
     FM250800 16006KT 2SM BR OVC005
     FM251500 16010KT P6SM BKN040=

USA.gov is the U.S. government's official web portal to all federal, state and local government web resources and services.